sensor_id;sensor_type;location;lat;lon;timestamp;P1;durP1;ratioP1;P2;durP2;ratioP2
42294;SDS011;27947;47.556;18.718;2022-11-15T00:01:32;14.07;;;7.80;;
42294;SDS011;27947;47.556;18.718;2022-11-15T00:04:16;16.83;;;7.50;;
42294;SDS011;27947;47.556;18.718;2022-11-15T00:07:00;16.38;;;7.97;;
42294;SDS011;27947;47.556;18.718;2022-11-15T00:09:44;16.27;;;7.75;;
42294;SDS011;27947;47.556;18.718;2022-11-15T00:12:28;18.20;;;7.53;;
42294;SDS011;27947;47.556;18.718;2022-11-15T00:15:12;17.30;;;8.05;;
42294;SDS011;27947;47.556;18.718;2022-11-15T00:17:56;17.48;;;7.15;;
42294;SDS011;27947;47.556;18.718;2022-11-15T00:20:40;17.15;;;7.70;;
42294;SDS011;27947;47.556;18.718;2022-11-15T00:23:23;20.13;;;8.75;;
42294;SDS011;27947;47.556;18.718;2022-11-15T00:26:10;19.95;;;7.72;;
42294;SDS011;27947;47.556;18.718;2022-11-15T00:28:54;18.05;;;7.97;;
42294;SDS011;27947;47.556;18.718;2022-11-15T00:31:38;13.77;;;6.28;;
42294;SDS011;27947;47.556;18.718;2022-11-15T00:34:22;16.85;;;7.15;;
42294;SDS011;27947;47.556;18.718;2022-11-15T00:37:06;15.25;;;7.97;;
42294;SDS011;27947;47.556;18.718;2022-11-15T00:39:50;14.63;;;7.72;;
42294;SDS011;27947;47.556;18.718;2022-11-15T00:42:34;13.93;;;7.50;;
42294;SDS011;27947;47.556;18.718;2022-11-15T00:45:18;15.98;;;6.50;;
42294;SDS011;27947;47.556;18.718;2022-11-15T00:48:02;15.77;;;7.07;;
42294;SDS011;27947;47.556;18.718;2022-11-15T00:50:46;19.27;;;6.80;;
42294;SDS011;27947;47.556;18.718;2022-11-15T00:53:30;11.65;;;5.78;;
42294;SDS011;27947;47.556;18.718;2022-11-15T00:56:14;14.43;;;6.60;;
42294;SDS011;27947;47.556;18.718;2022-11-15T00:58:58;10.07;;;5.50;;
42294;SDS011;27947;47.556;18.718;2022-11-15T01:01:41;11.07;;;5.57;;
42294;SDS011;27947;47.556;18.718;2022-11-15T01:04:26;13.60;;;6.03;;
42294;SDS011;27947;47.556;18.718;2022-11-15T01:07:09;11.20;;;5.68;;
42294;SDS011;27947;47.556;18.718;2022-11-15T01:09:53;15.63;;;5.85;;
42294;SDS011;27947;47.556;18.718;2022-11-15T01:12:37;16.48;;;7.22;;
42294;SDS011;27947;47.556;18.718;2022-11-15T01:15:21;9.98;;;5.10;;
42294;SDS011;27947;47.556;18.718;2022-11-15T01:18:05;18.52;;;7.97;;
42294;SDS011;27947;47.556;18.718;2022-11-15T01:20:49;11.57;;;5.07;;
42294;SDS011;27947;47.556;18.718;2022-11-15T01:23:33;12.32;;;5.30;;
42294;SDS011;27947;47.556;18.718;2022-11-15T01:26:17;13.02;;;6.13;;
42294;SDS011;27947;47.556;18.718;2022-11-15T01:29:01;11.02;;;5.43;;
42294;SDS011;27947;47.556;18.718;2022-11-15T01:31:45;16.52;;;7.07;;
42294;SDS011;27947;47.556;18.718;2022-11-15T01:34:29;11.00;;;5.75;;
42294;SDS011;27947;47.556;18.718;2022-11-15T01:37:13;11.60;;;5.80;;
42294;SDS011;27947;47.556;18.718;2022-11-15T01:39:57;14.55;;;6.45;;
42294;SDS011;27947;47.556;18.718;2022-11-15T01:42:41;12.95;;;5.90;;
42294;SDS011;27947;47.556;18.718;2022-11-15T01:45:25;11.93;;;5.95;;
42294;SDS011;27947;47.556;18.718;2022-11-15T01:48:08;14.00;;;5.93;;
42294;SDS011;27947;47.556;18.718;2022-11-15T01:50:54;10.90;;;4.82;;
42294;SDS011;27947;47.556;18.718;2022-11-15T01:53:38;11.48;;;5.15;;
42294;SDS011;27947;47.556;18.718;2022-11-15T01:56:25;14.00;;;5.70;;
42294;SDS011;27947;47.556;18.718;2022-11-15T01:59:11;15.50;;;7.05;;
42294;SDS011;27947;47.556;18.718;2022-11-15T02:01:55;15.40;;;6.80;;
42294;SDS011;27947;47.556;18.718;2022-11-15T02:04:43;12.07;;;6.03;;
42294;SDS011;27947;47.556;18.718;2022-11-15T02:07:27;16.23;;;7.50;;
42294;SDS011;27947;47.556;18.718;2022-11-15T02:10:14;15.27;;;6.78;;
42294;SDS011;27947;47.556;18.718;2022-11-15T02:12:58;12.45;;;5.93;;
42294;SDS011;27947;47.556;18.718;2022-11-15T02:15:46;11.02;;;5.65;;
42294;SDS011;27947;47.556;18.718;2022-11-15T02:18:35;20.42;;;7.40;;
42294;SDS011;27947;47.556;18.718;2022-11-15T02:21:37;12.98;;;5.28;;
42294;SDS011;27947;47.556;18.718;2022-11-15T02:32:59;12.43;;;6.40;;
42294;SDS011;27947;47.556;18.718;2022-11-15T02:38:38;11.82;;;5.63;;
42294;SDS011;27947;47.556;18.718;2022-11-15T02:44:17;12.55;;;5.10;;
42294;SDS011;27947;47.556;18.718;2022-11-15T02:47:06;11.73;;;5.85;;
42294;SDS011;27947;47.556;18.718;2022-11-15T02:49:58;12.63;;;4.85;;
42294;SDS011;27947;47.556;18.718;2022-11-15T02:52:47;17.40;;;7.15;;
42294;SDS011;27947;47.556;18.718;2022-11-15T02:55:33;11.85;;;4.78;;
42294;SDS011;27947;47.556;18.718;2022-11-15T03:04:35;6.82;;;3.30;;
42294;SDS011;27947;47.556;18.718;2022-11-15T03:07:26;9.48;;;4.32;;
42294;SDS011;27947;47.556;18.718;2022-11-15T03:10:50;7.45;;;3.65;;
42294;SDS011;27947;47.556;18.718;2022-11-15T03:16:50;8.13;;;3.25;;
42294;SDS011;27947;47.556;18.718;2022-11-15T03:19:23;5.63;;;3.08;;
42294;SDS011;27947;47.556;18.718;2022-11-15T03:22:11;9.30;;;3.65;;
42294;SDS011;27947;47.556;18.718;2022-11-15T03:24:57;8.93;;;3.78;;
42294;SDS011;27947;47.556;18.718;2022-11-15T03:27:43;7.68;;;4.18;;
42294;SDS011;27947;47.556;18.718;2022-11-15T03:30:27;9.30;;;3.97;;
42294;SDS011;27947;47.556;18.718;2022-11-15T03:33:12;8.45;;;3.88;;
42294;SDS011;27947;47.556;18.718;2022-11-15T03:35:55;9.77;;;4.03;;
42294;SDS011;27947;47.556;18.718;2022-11-15T03:38:39;6.55;;;3.13;;
42294;SDS011;27947;47.556;18.718;2022-11-15T03:50:27;8.50;;;4.25;;
42294;SDS011;27947;47.556;18.718;2022-11-15T03:53:12;9.55;;;4.50;;
42294;SDS011;27947;47.556;18.718;2022-11-15T03:55:56;12.25;;;4.95;;
42294;SDS011;27947;47.556;18.718;2022-11-15T03:58:40;7.40;;;4.03;;
42294;SDS011;27947;47.556;18.718;2022-11-15T04:01:24;12.50;;;5.47;;
42294;SDS011;27947;47.556;18.718;2022-11-15T04:04:08;8.02;;;3.30;;
42294;SDS011;27947;47.556;18.718;2022-11-15T04:06:51;10.85;;;4.35;;
42294;SDS011;27947;47.556;18.718;2022-11-15T04:09:35;7.47;;;3.53;;
42294;SDS011;27947;47.556;18.718;2022-11-15T04:12:42;12.68;;;3.78;;
42294;SDS011;27947;47.556;18.718;2022-11-15T04:15:27;8.95;;;3.45;;
42294;SDS011;27947;47.556;18.718;2022-11-15T04:18:12;9.45;;;3.58;;
42294;SDS011;27947;47.556;18.718;2022-11-15T04:20:56;7.63;;;3.65;;
42294;SDS011;27947;47.556;18.718;2022-11-15T04:26:49;6.45;;;3.50;;
42294;SDS011;27947;47.556;18.718;2022-11-15T04:29:33;11.98;;;4.03;;
42294;SDS011;27947;47.556;18.718;2022-11-15T04:32:20;7.20;;;3.85;;
42294;SDS011;27947;47.556;18.718;2022-11-15T04:35:04;7.32;;;4.15;;
42294;SDS011;27947;47.556;18.718;2022-11-15T04:37:47;10.50;;;3.58;;
42294;SDS011;27947;47.556;18.718;2022-11-15T04:40:31;8.98;;;4.55;;
42294;SDS011;27947;47.556;18.718;2022-11-15T04:43:15;10.95;;;5.22;;
42294;SDS011;27947;47.556;18.718;2022-11-15T04:45:59;6.22;;;3.45;;
42294;SDS011;27947;47.556;18.718;2022-11-15T04:48:43;7.35;;;3.28;;
42294;SDS011;27947;47.556;18.718;2022-11-15T04:51:27;6.82;;;3.75;;
42294;SDS011;27947;47.556;18.718;2022-11-15T04:54:11;10.27;;;4.30;;
42294;SDS011;27947;47.556;18.718;2022-11-15T04:56:54;10.90;;;4.40;;
42294;SDS011;27947;47.556;18.718;2022-11-15T04:59:38;8.15;;;4.88;;
42294;SDS011;27947;47.556;18.718;2022-11-15T05:02:22;12.02;;;4.60;;
42294;SDS011;27947;47.556;18.718;2022-11-15T05:05:06;9.45;;;4.53;;
42294;SDS011;27947;47.556;18.718;2022-11-15T05:07:50;6.60;;;3.50;;
42294;SDS011;27947;47.556;18.718;2022-11-15T05:10:34;12.10;;;4.75;;
42294;SDS011;27947;47.556;18.718;2022-11-15T05:13:18;7.25;;;4.18;;
42294;SDS011;27947;47.556;18.718;2022-11-15T05:16:02;7.70;;;4.38;;
42294;SDS011;27947;47.556;18.718;2022-11-15T05:18:46;8.40;;;4.03;;
42294;SDS011;27947;47.556;18.718;2022-11-15T05:21:30;8.88;;;3.75;;
42294;SDS011;27947;47.556;18.718;2022-11-15T05:24:13;8.30;;;4.35;;
42294;SDS011;27947;47.556;18.718;2022-11-15T05:26:57;7.45;;;3.50;;
42294;SDS011;27947;47.556;18.718;2022-11-15T05:29:41;7.93;;;5.32;;
42294;SDS011;27947;47.556;18.718;2022-11-15T05:32:25;9.40;;;4.55;;
42294;SDS011;27947;47.556;18.718;2022-11-15T05:35:12;7.43;;;3.65;;
42294;SDS011;27947;47.556;18.718;2022-11-15T05:37:57;10.25;;;4.35;;
42294;SDS011;27947;47.556;18.718;2022-11-15T05:40:41;10.07;;;4.40;;
42294;SDS011;27947;47.556;18.718;2022-11-15T05:43:25;11.07;;;3.75;;
42294;SDS011;27947;47.556;18.718;2022-11-15T05:46:09;9.35;;;3.90;;
42294;SDS011;27947;47.556;18.718;2022-11-15T05:48:53;8.02;;;3.55;;
42294;SDS011;27947;47.556;18.718;2022-11-15T05:51:38;8.18;;;4.40;;
42294;SDS011;27947;47.556;18.718;2022-11-15T05:54:22;13.15;;;4.38;;
42294;SDS011;27947;47.556;18.718;2022-11-15T05:57:06;6.40;;;3.60;;
42294;SDS011;27947;47.556;18.718;2022-11-15T05:59:50;9.98;;;3.50;;
42294;SDS011;27947;47.556;18.718;2022-11-15T06:02:34;10.32;;;3.83;;
42294;SDS011;27947;47.556;18.718;2022-11-15T06:05:18;8.45;;;3.97;;
42294;SDS011;27947;47.556;18.718;2022-11-15T06:08:02;7.40;;;3.97;;
42294;SDS011;27947;47.556;18.718;2022-11-15T06:10:46;7.22;;;3.83;;
42294;SDS011;27947;47.556;18.718;2022-11-15T06:13:30;7.30;;;3.90;;
42294;SDS011;27947;47.556;18.718;2022-11-15T06:16:14;10.02;;;4.75;;
42294;SDS011;27947;47.556;18.718;2022-11-15T06:18:58;6.78;;;3.28;;
42294;SDS011;27947;47.556;18.718;2022-11-15T06:21:41;10.02;;;4.32;;
42294;SDS011;27947;47.556;18.718;2022-11-15T06:24:25;9.45;;;3.95;;
42294;SDS011;27947;47.556;18.718;2022-11-15T06:27:10;8.73;;;4.03;;
42294;SDS011;27947;47.556;18.718;2022-11-15T06:29:54;6.50;;;3.67;;
42294;SDS011;27947;47.556;18.718;2022-11-15T06:32:37;10.40;;;4.13;;
42294;SDS011;27947;47.556;18.718;2022-11-15T06:35:21;7.18;;;3.20;;
42294;SDS011;27947;47.556;18.718;2022-11-15T06:38:06;9.45;;;3.90;;
42294;SDS011;27947;47.556;18.718;2022-11-15T06:40:50;7.30;;;3.45;;
42294;SDS011;27947;47.556;18.718;2022-11-15T06:43:34;9.48;;;4.28;;
42294;SDS011;27947;47.556;18.718;2022-11-15T06:46:18;10.63;;;4.50;;
42294;SDS011;27947;47.556;18.718;2022-11-15T06:49:02;10.25;;;4.60;;
42294;SDS011;27947;47.556;18.718;2022-11-15T06:51:46;12.20;;;4.47;;
42294;SDS011;27947;47.556;18.718;2022-11-15T06:54:30;9.55;;;4.18;;
42294;SDS011;27947;47.556;18.718;2022-11-15T06:57:14;8.50;;;4.13;;
42294;SDS011;27947;47.556;18.718;2022-11-15T06:59:58;8.10;;;4.32;;
42294;SDS011;27947;47.556;18.718;2022-11-15T07:02:42;8.38;;;4.28;;
42294;SDS011;27947;47.556;18.718;2022-11-15T07:05:26;8.18;;;4.20;;
42294;SDS011;27947;47.556;18.718;2022-11-15T07:08:10;7.82;;;4.40;;
42294;SDS011;27947;47.556;18.718;2022-11-15T07:10:54;9.20;;;4.07;;
42294;SDS011;27947;47.556;18.718;2022-11-15T07:13:41;7.82;;;4.30;;
42294;SDS011;27947;47.556;18.718;2022-11-15T07:16:24;5.90;;;3.50;;
42294;SDS011;27947;47.556;18.718;2022-11-15T07:19:08;8.60;;;4.20;;
42294;SDS011;27947;47.556;18.718;2022-11-15T07:21:52;9.13;;;4.22;;
42294;SDS011;27947;47.556;18.718;2022-11-15T07:24:36;10.15;;;4.72;;
42294;SDS011;27947;47.556;18.718;2022-11-15T07:27:20;9.02;;;4.72;;
42294;SDS011;27947;47.556;18.718;2022-11-15T07:30:04;12.68;;;4.85;;
42294;SDS011;27947;47.556;18.718;2022-11-15T07:32:58;10.65;;;4.90;;
42294;SDS011;27947;47.556;18.718;2022-11-15T07:35:42;11.23;;;4.82;;
42294;SDS011;27947;47.556;18.718;2022-11-15T07:38:26;8.20;;;4.95;;
42294;SDS011;27947;47.556;18.718;2022-11-15T07:41:10;9.40;;;4.63;;
42294;SDS011;27947;47.556;18.718;2022-11-15T07:43:54;10.43;;;4.78;;
42294;SDS011;27947;47.556;18.718;2022-11-15T07:46:38;13.10;;;5.55;;
42294;SDS011;27947;47.556;18.718;2022-11-15T07:49:22;12.85;;;6.22;;
42294;SDS011;27947;47.556;18.718;2022-11-15T07:52:05;10.63;;;5.32;;
42294;SDS011;27947;47.556;18.718;2022-11-15T07:54:49;16.95;;;6.38;;
42294;SDS011;27947;47.556;18.718;2022-11-15T07:57:33;12.65;;;5.50;;
42294;SDS011;27947;47.556;18.718;2022-11-15T08:00:17;10.27;;;5.47;;
42294;SDS011;27947;47.556;18.718;2022-11-15T08:03:06;13.27;;;6.63;;
42294;SDS011;27947;47.556;18.718;2022-11-15T08:05:50;12.23;;;5.82;;
42294;SDS011;27947;47.556;18.718;2022-11-15T08:08:35;13.63;;;6.85;;
42294;SDS011;27947;47.556;18.718;2022-11-15T08:11:18;11.43;;;5.47;;
42294;SDS011;27947;47.556;18.718;2022-11-15T08:14:02;17.08;;;6.68;;
42294;SDS011;27947;47.556;18.718;2022-11-15T08:16:46;14.85;;;7.28;;
42294;SDS011;27947;47.556;18.718;2022-11-15T08:19:30;18.10;;;8.02;;
42294;SDS011;27947;47.556;18.718;2022-11-15T08:22:14;14.73;;;6.25;;
42294;SDS011;27947;47.556;18.718;2022-11-15T08:24:58;14.98;;;6.28;;
42294;SDS011;27947;47.556;18.718;2022-11-15T08:27:42;15.48;;;6.90;;
42294;SDS011;27947;47.556;18.718;2022-11-15T08:30:26;12.73;;;5.53;;
42294;SDS011;27947;47.556;18.718;2022-11-15T08:33:11;15.18;;;5.57;;
42294;SDS011;27947;47.556;18.718;2022-11-15T08:35:58;13.85;;;6.45;;
42294;SDS011;27947;47.556;18.718;2022-11-15T08:38:43;11.88;;;6.00;;
42294;SDS011;27947;47.556;18.718;2022-11-15T08:41:28;13.27;;;5.93;;
42294;SDS011;27947;47.556;18.718;2022-11-15T08:44:13;14.20;;;5.72;;
42294;SDS011;27947;47.556;18.718;2022-11-15T08:46:57;16.42;;;7.05;;
42294;SDS011;27947;47.556;18.718;2022-11-15T08:49:41;17.95;;;7.80;;
42294;SDS011;27947;47.556;18.718;2022-11-15T08:52:25;15.35;;;7.07;;
42294;SDS011;27947;47.556;18.718;2022-11-15T08:55:09;11.85;;;6.03;;
42294;SDS011;27947;47.556;18.718;2022-11-15T08:57:53;13.27;;;6.20;;
42294;SDS011;27947;47.556;18.718;2022-11-15T09:00:37;13.82;;;6.85;;
42294;SDS011;27947;47.556;18.718;2022-11-15T09:03:21;16.33;;;7.05;;
42294;SDS011;27947;47.556;18.718;2022-11-15T09:06:04;15.70;;;6.70;;
42294;SDS011;27947;47.556;18.718;2022-11-15T09:08:48;15.63;;;7.72;;
42294;SDS011;27947;47.556;18.718;2022-11-15T09:11:32;17.25;;;7.70;;
42294;SDS011;27947;47.556;18.718;2022-11-15T09:14:16;13.48;;;7.18;;
42294;SDS011;27947;47.556;18.718;2022-11-15T09:17:00;16.63;;;7.88;;
42294;SDS011;27947;47.556;18.718;2022-11-15T09:19:45;20.30;;;7.40;;
42294;SDS011;27947;47.556;18.718;2022-11-15T09:22:29;13.32;;;6.22;;
42294;SDS011;27947;47.556;18.718;2022-11-15T09:25:13;13.60;;;6.45;;
42294;SDS011;27947;47.556;18.718;2022-11-15T09:27:56;14.63;;;6.60;;
42294;SDS011;27947;47.556;18.718;2022-11-15T09:30:40;13.27;;;6.25;;
42294;SDS011;27947;47.556;18.718;2022-11-15T09:33:24;10.40;;;5.63;;
42294;SDS011;27947;47.556;18.718;2022-11-15T09:36:09;13.18;;;7.47;;
42294;SDS011;27947;47.556;18.718;2022-11-15T09:38:52;14.55;;;7.03;;
42294;SDS011;27947;47.556;18.718;2022-11-15T09:50:12;15.93;;;7.53;;
42294;SDS011;27947;47.556;18.718;2022-11-15T09:52:39;13.65;;;6.28;;
42294;SDS011;27947;47.556;18.718;2022-11-15T09:55:08;18.40;;;6.25;;
42294;SDS011;27947;47.556;18.718;2022-11-15T10:05:14;19.30;;;7.13;;
42294;SDS011;27947;47.556;18.718;2022-11-15T10:07:46;13.60;;;6.30;;
42294;SDS011;27947;47.556;18.718;2022-11-15T10:12:46;15.52;;;7.28;;
42294;SDS011;27947;47.556;18.718;2022-11-15T10:15:14;18.10;;;6.82;;
42294;SDS011;27947;47.556;18.718;2022-11-15T10:20:21;14.35;;;6.78;;
42294;SDS011;27947;47.556;18.718;2022-11-15T10:22:48;16.63;;;7.20;;
42294;SDS011;27947;47.556;18.718;2022-11-15T10:25:18;18.60;;;7.30;;
42294;SDS011;27947;47.556;18.718;2022-11-15T10:27:44;17.77;;;7.38;;
42294;SDS011;27947;47.556;18.718;2022-11-15T10:30:14;15.77;;;7.70;;
42294;SDS011;27947;47.556;18.718;2022-11-15T10:32:41;21.52;;;7.78;;
42294;SDS011;27947;47.556;18.718;2022-11-15T10:35:15;18.20;;;7.72;;
42294;SDS011;27947;47.556;18.718;2022-11-15T10:37:41;18.60;;;7.30;;
42294;SDS011;27947;47.556;18.718;2022-11-15T10:40:14;19.75;;;7.93;;
42294;SDS011;27947;47.556;18.718;2022-11-15T10:42:40;24.48;;;8.52;;
42294;SDS011;27947;47.556;18.718;2022-11-15T10:45:22;19.33;;;8.25;;
42294;SDS011;27947;47.556;18.718;2022-11-15T10:47:48;16.30;;;7.45;;
42294;SDS011;27947;47.556;18.718;2022-11-15T10:50:30;14.32;;;8.00;;
42294;SDS011;27947;47.556;18.718;2022-11-15T10:55:25;15.73;;;6.87;;
42294;SDS011;27947;47.556;18.718;2022-11-15T10:57:55;20.50;;;7.80;;
42294;SDS011;27947;47.556;18.718;2022-11-15T11:00:27;17.48;;;7.93;;
42294;SDS011;27947;47.556;18.718;2022-11-15T11:05:34;20.30;;;7.43;;
42294;SDS011;27947;47.556;18.718;2022-11-15T11:08:01;17.33;;;7.68;;
42294;SDS011;27947;47.556;18.718;2022-11-15T11:10:27;20.55;;;8.32;;
42294;SDS011;27947;47.556;18.718;2022-11-15T11:12:53;24.55;;;8.20;;
42294;SDS011;27947;47.556;18.718;2022-11-15T11:15:18;19.02;;;8.55;;
42294;SDS011;27947;47.556;18.718;2022-11-15T11:18:05;18.58;;;8.75;;
42294;SDS011;27947;47.556;18.718;2022-11-15T11:20:38;20.17;;;9.20;;
42294;SDS011;27947;47.556;18.718;2022-11-15T11:23:30;25.00;;;9.68;;
42294;SDS011;27947;47.556;18.718;2022-11-15T11:28:45;24.30;;;8.57;;
42294;SDS011;27947;47.556;18.718;2022-11-15T11:33:50;19.65;;;7.97;;
42294;SDS011;27947;47.556;18.718;2022-11-15T11:36:23;21.77;;;8.98;;
42294;SDS011;27947;47.556;18.718;2022-11-15T11:54:47;27.10;;;9.35;;
42294;SDS011;27947;47.556;18.718;2022-11-15T11:56:50;22.52;;;9.95;;
42294;SDS011;27947;47.556;18.718;2022-11-15T11:59:33;32.17;;;12.30;;
42294;SDS011;27947;47.556;18.718;2022-11-15T12:02:12;29.88;;;11.75;;
42294;SDS011;27947;47.556;18.718;2022-11-15T12:04:40;25.38;;;10.50;;
42294;SDS011;27947;47.556;18.718;2022-11-15T12:07:08;23.73;;;9.48;;
42294;SDS011;27947;47.556;18.718;2022-11-15T12:09:43;24.75;;;9.13;;
42294;SDS011;27947;47.556;18.718;2022-11-15T12:14:58;32.05;;;11.90;;
42294;SDS011;27947;47.556;18.718;2022-11-15T12:17:25;27.85;;;10.52;;
42294;SDS011;27947;47.556;18.718;2022-11-15T12:19:51;27.83;;;10.73;;
42294;SDS011;27947;47.556;18.718;2022-11-15T12:22:21;23.27;;;11.65;;
42294;SDS011;27947;47.556;18.718;2022-11-15T12:25:08;22.90;;;9.20;;
42294;SDS011;27947;47.556;18.718;2022-11-15T12:27:44;23.20;;;9.10;;
42294;SDS011;27947;47.556;18.718;2022-11-15T12:30:15;24.05;;;9.43;;
42294;SDS011;27947;47.556;18.718;2022-11-15T12:32:59;27.20;;;11.77;;
42294;SDS011;27947;47.556;18.718;2022-11-15T12:35:35;22.08;;;9.57;;
42294;SDS011;27947;47.556;18.718;2022-11-15T12:38:02;23.80;;;10.20;;
42294;SDS011;27947;47.556;18.718;2022-11-15T12:40:29;24.15;;;10.48;;
42294;SDS011;27947;47.556;18.718;2022-11-15T12:43:02;23.63;;;9.65;;
42294;SDS011;27947;47.556;18.718;2022-11-15T12:45:38;22.92;;;9.15;;
42294;SDS011;27947;47.556;18.718;2022-11-15T12:59:38;21.13;;;10.20;;
42294;SDS011;27947;47.556;18.718;2022-11-15T13:06:43;17.00;;;8.40;;
42294;SDS011;27947;47.556;18.718;2022-11-15T13:11:52;21.52;;;9.15;;
42294;SDS011;27947;47.556;18.718;2022-11-15T13:15:08;25.02;;;10.35;;
42294;SDS011;27947;47.556;18.718;2022-11-15T13:17:21;23.35;;;9.18;;
42294;SDS011;27947;47.556;18.718;2022-11-15T13:20:32;22.60;;;8.88;;
42294;SDS011;27947;47.556;18.718;2022-11-15T13:22:40;20.23;;;9.65;;
42294;SDS011;27947;47.556;18.718;2022-11-15T13:28:10;25.10;;;9.30;;
42294;SDS011;27947;47.556;18.718;2022-11-15T13:30:36;21.67;;;8.35;;
42294;SDS011;27947;47.556;18.718;2022-11-15T13:33:14;21.83;;;10.25;;
42294;SDS011;27947;47.556;18.718;2022-11-15T13:35:40;23.13;;;10.25;;
42294;SDS011;27947;47.556;18.718;2022-11-15T13:38:06;20.08;;;9.68;;
42294;SDS011;27947;47.556;18.718;2022-11-15T13:40:35;23.58;;;9.90;;
42294;SDS011;27947;47.556;18.718;2022-11-15T13:43:15;30.35;;;10.30;;
42294;SDS011;27947;47.556;18.718;2022-11-15T13:45:42;23.90;;;9.75;;
42294;SDS011;27947;47.556;18.718;2022-11-15T13:48:08;21.50;;;10.20;;
42294;SDS011;27947;47.556;18.718;2022-11-15T13:50:35;41.38;;;16.45;;
42294;SDS011;27947;47.556;18.718;2022-11-15T13:53:02;49.88;;;20.00;;
42294;SDS011;27947;47.556;18.718;2022-11-15T13:55:28;36.97;;;14.82;;
42294;SDS011;27947;47.556;18.718;2022-11-15T13:57:56;29.35;;;12.73;;
42294;SDS011;27947;47.556;18.718;2022-11-15T14:05:41;23.35;;;10.23;;
42294;SDS011;27947;47.556;18.718;2022-11-15T14:10:44;28.20;;;10.02;;
42294;SDS011;27947;47.556;18.718;2022-11-15T14:13:11;30.30;;;10.98;;
42294;SDS011;27947;47.556;18.718;2022-11-15T14:15:51;27.15;;;11.15;;
42294;SDS011;27947;47.556;18.718;2022-11-15T14:21:07;23.88;;;10.32;;
42294;SDS011;27947;47.556;18.718;2022-11-15T14:23:34;27.00;;;10.57;;
42294;SDS011;27947;47.556;18.718;2022-11-15T14:25:59;28.70;;;11.23;;
42294;SDS011;27947;47.556;18.718;2022-11-15T14:30:54;25.13;;;10.38;;
42294;SDS011;27947;47.556;18.718;2022-11-15T14:35:47;20.38;;;9.13;;
42294;SDS011;27947;47.556;18.718;2022-11-15T14:38:13;27.35;;;10.15;;
42294;SDS011;27947;47.556;18.718;2022-11-15T14:40:39;22.80;;;10.15;;
42294;SDS011;27947;47.556;18.718;2022-11-15T14:43:04;24.13;;;10.00;;
42294;SDS011;27947;47.556;18.718;2022-11-15T14:45:29;24.73;;;10.45;;
42294;SDS011;27947;47.556;18.718;2022-11-15T14:47:55;20.80;;;10.75;;
42294;SDS011;27947;47.556;18.718;2022-11-15T14:50:21;21.83;;;9.50;;
42294;SDS011;27947;47.556;18.718;2022-11-15T14:52:47;23.70;;;9.75;;
42294;SDS011;27947;47.556;18.718;2022-11-15T14:57:40;25.63;;;10.75;;
42294;SDS011;27947;47.556;18.718;2022-11-15T15:00:06;23.10;;;9.55;;
42294;SDS011;27947;47.556;18.718;2022-11-15T15:02:40;29.55;;;10.13;;
42294;SDS011;27947;47.556;18.718;2022-11-15T15:05:25;23.73;;;9.38;;
42294;SDS011;27947;47.556;18.718;2022-11-15T15:07:50;26.38;;;9.68;;
42294;SDS011;27947;47.556;18.718;2022-11-15T15:10:18;28.35;;;9.43;;
42294;SDS011;27947;47.556;18.718;2022-11-15T15:12:43;22.20;;;9.60;;
42294;SDS011;27947;47.556;18.718;2022-11-15T15:15:16;21.52;;;8.57;;
42294;SDS011;27947;47.556;18.718;2022-11-15T15:17:42;23.35;;;9.93;;
42294;SDS011;27947;47.556;18.718;2022-11-15T15:20:08;26.05;;;10.02;;
42294;SDS011;27947;47.556;18.718;2022-11-15T15:22:33;30.05;;;11.15;;
42294;SDS011;27947;47.556;18.718;2022-11-15T15:24:59;23.13;;;9.93;;
42294;SDS011;27947;47.556;18.718;2022-11-15T15:27:24;21.75;;;7.28;;
42294;SDS011;27947;47.556;18.718;2022-11-15T15:29:49;21.08;;;8.23;;
42294;SDS011;27947;47.556;18.718;2022-11-15T15:32:15;23.08;;;9.48;;
42294;SDS011;27947;47.556;18.718;2022-11-15T15:34:40;23.85;;;9.73;;
42294;SDS011;27947;47.556;18.718;2022-11-15T15:37:12;24.83;;;10.55;;
42294;SDS011;27947;47.556;18.718;2022-11-15T15:39:40;25.73;;;10.40;;
42294;SDS011;27947;47.556;18.718;2022-11-15T15:42:06;22.25;;;8.80;;
42294;SDS011;27947;47.556;18.718;2022-11-15T15:44:31;24.58;;;8.68;;
42294;SDS011;27947;47.556;18.718;2022-11-15T15:46:56;20.60;;;8.70;;
42294;SDS011;27947;47.556;18.718;2022-11-15T15:49:22;23.67;;;8.90;;
42294;SDS011;27947;47.556;18.718;2022-11-15T15:51:48;23.85;;;8.68;;
42294;SDS011;27947;47.556;18.718;2022-11-15T15:54:13;22.88;;;9.05;;
42294;SDS011;27947;47.556;18.718;2022-11-15T15:56:39;26.02;;;9.57;;
42294;SDS011;27947;47.556;18.718;2022-11-15T15:59:04;22.30;;;9.63;;
42294;SDS011;27947;47.556;18.718;2022-11-15T16:01:30;27.33;;;10.07;;
42294;SDS011;27947;47.556;18.718;2022-11-15T16:03:55;23.00;;;9.63;;
42294;SDS011;27947;47.556;18.718;2022-11-15T16:06:37;26.65;;;8.93;;
42294;SDS011;27947;47.556;18.718;2022-11-15T16:09:03;25.77;;;10.30;;
42294;SDS011;27947;47.556;18.718;2022-11-15T16:11:29;24.60;;;10.13;;
42294;SDS011;27947;47.556;18.718;2022-11-15T16:13:54;26.38;;;9.32;;
42294;SDS011;27947;47.556;18.718;2022-11-15T16:16:19;24.58;;;11.30;;
42294;SDS011;27947;47.556;18.718;2022-11-15T16:18:45;29.80;;;10.70;;
42294;SDS011;27947;47.556;18.718;2022-11-15T16:21:10;31.48;;;10.73;;
42294;SDS011;27947;47.556;18.718;2022-11-15T16:23:35;41.80;;;14.45;;
42294;SDS011;27947;47.556;18.718;2022-11-15T16:26:01;29.77;;;12.27;;
42294;SDS011;27947;47.556;18.718;2022-11-15T16:28:28;35.80;;;11.60;;
42294;SDS011;27947;47.556;18.718;2022-11-15T16:31:10;31.83;;;12.07;;
42294;SDS011;27947;47.556;18.718;2022-11-15T16:33:35;23.58;;;10.73;;
42294;SDS011;27947;47.556;18.718;2022-11-15T16:36:01;26.75;;;11.68;;
42294;SDS011;27947;47.556;18.718;2022-11-15T16:38:27;25.98;;;11.07;;
42294;SDS011;27947;47.556;18.718;2022-11-15T16:40:52;26.73;;;11.90;;
42294;SDS011;27947;47.556;18.718;2022-11-15T16:43:18;60.67;;;11.55;;
42294;SDS011;27947;47.556;18.718;2022-11-15T16:45:43;31.38;;;11.45;;
42294;SDS011;27947;47.556;18.718;2022-11-15T16:48:20;25.20;;;10.48;;
42294;SDS011;27947;47.556;18.718;2022-11-15T16:50:46;37.40;;;13.43;;
42294;SDS011;27947;47.556;18.718;2022-11-15T16:53:11;29.00;;;11.43;;
42294;SDS011;27947;47.556;18.718;2022-11-15T16:55:36;19.92;;;9.77;;
42294;SDS011;27947;47.556;18.718;2022-11-15T16:58:02;30.92;;;10.02;;
42294;SDS011;27947;47.556;18.718;2022-11-15T17:00:27;26.00;;;10.25;;
42294;SDS011;27947;47.556;18.718;2022-11-15T17:02:53;40.92;;;12.70;;
42294;SDS011;27947;47.556;18.718;2022-11-15T17:05:19;29.75;;;11.48;;
42294;SDS011;27947;47.556;18.718;2022-11-15T17:07:46;25.25;;;8.55;;
42294;SDS011;27947;47.556;18.718;2022-11-15T17:10:13;29.13;;;10.20;;
42294;SDS011;27947;47.556;18.718;2022-11-15T17:12:38;19.40;;;8.82;;
42294;SDS011;27947;47.556;18.718;2022-11-15T17:15:03;28.60;;;11.02;;
42294;SDS011;27947;47.556;18.718;2022-11-15T17:17:29;24.95;;;9.63;;
42294;SDS011;27947;47.556;18.718;2022-11-15T17:19:54;34.60;;;11.80;;
42294;SDS011;27947;47.556;18.718;2022-11-15T17:22:20;24.45;;;9.18;;
42294;SDS011;27947;47.556;18.718;2022-11-15T17:24:45;26.20;;;9.68;;
42294;SDS011;27947;47.556;18.718;2022-11-15T17:27:11;26.90;;;9.60;;
42294;SDS011;27947;47.556;18.718;2022-11-15T17:29:36;23.75;;;8.95;;